Tiziana — 9H7873 — position and weather

sailwx.info

Track history (hours):
 
Tides and Currents Weather Stations Pressure Air Temp Water Temp Dewpoint Dewpoint Depression Visibility Wind Speed Wind Dir Waves Ship Positions

Tiziana

Last reported at 2018-Jun-12 11:03 UTC. Time now 2018-Jun-24 18:52 UTC.
Position N 40°42' E 014°27'.
Warning: this ship's position is 12 days out of date.

Length 35 m.

Type: Sailing vessel. MMSI: 215959000.

Date/timePositionNaut miles runAvg speedWind from/ knotsBaromVisibWave heightAir tempDewpointWater temp
2018-Jun-12 11:03N 40°42' E 014°27'0 0.2
2018-Jun-12 10:54N 40°42' E 014°27'0 0.4
2018-Jun-12 10:23N 40°42' E 014°28'0 0.3
2018-Jun-12 09:19N 40°42' E 014°27'0 0.0
2018-Jun-12 08:55N 40°42' E 014°27'0 0.1
2018-Jun-12 07:30N 40°42' E 014°27'3 5.8
2018-Jun-12 07:00N 40°42' E 014°24'4 7.3
2018-Jun-12 06:30N 40°40' E 014°19'4 7.4
2018-Jun-12 06:00N 40°38' E 014°15'4 7.3
2018-Jun-12 05:30N 40°36' E 014°11'3 6.1
2018-Jun-12 05:00N 40°34' E 014°09'5 7.4
2018-Jun-12 04:21N 40°29' E 014°10'3 7.4
2018-Jun-12 03:55N 40°26' E 014°11'3 7.4
2018-Jun-12 03:29N 40°23' E 014°13'4 7.3
2018-Jun-12 02:59N 40°20' E 014°14'  
2018-Jun-03 17:02N 38°27' E 015°02'0 1.8
2018-Jun-03 16:58N 38°27' E 015°02'4 0.6
2018-Jun-03 10:19N 38°28' E 014°57'0 0.0
2018-Jun-03 09:55N 38°28' E 014°57'0 0.0
2018-Jun-03 09:19N 38°28' E 014°57'0 0.0
2018-Jun-03 08:43N 38°28' E 014°57'0 0.0
2018-Jun-03 08:19N 38°28' E 014°57'0 0.0
2018-Jun-03 07:37N 38°28' E 014°57'0 0.0
2018-Jun-03 07:25N 38°28' E 014°57'0 0.0
2018-Jun-03 06:49N 38°28' E 014°57'  
Track history (hours):
 
Tides and Currents Weather Stations Pressure Air Temp Water Temp Dewpoint Dewpoint Depression Visibility Wind Speed Wind Dir Waves Ship Positions

Tiziana

Last reported at 2018-Jun-12 11:03 UTC. Time now 2018-Jun-24 18:52 UTC.
Position N 40°42' E 014°27'.
Warning: this ship's position is 12 days out of date.

Length 35 m.

Type: Sailing vessel. MMSI: 215959000.

Date/timePositionNaut miles runAvg speedWind from/ knotsBaromVisibWave heightAir tempDewpointWater temp
2018-Jun-12 11:03N 40°42' E 014°27'0 0.2
2018-Jun-12 10:54N 40°42' E 014°27'0 0.4
2018-Jun-12 10:23N 40°42' E 014°28'0 0.3
2018-Jun-12 09:19N 40°42' E 014°27'0 0.0
2018-Jun-12 08:55N 40°42' E 014°27'0 0.1
2018-Jun-12 07:30N 40°42' E 014°27'3 5.8
2018-Jun-12 07:00N 40°42' E 014°24'4 7.3
2018-Jun-12 06:30N 40°40' E 014°19'4 7.4
2018-Jun-12 06:00N 40°38' E 014°15'4 7.3
2018-Jun-12 05:30N 40°36' E 014°11'3 6.1
2018-Jun-12 05:00N 40°34' E 014°09'5 7.4
2018-Jun-12 04:21N 40°29' E 014°10'3 7.4
2018-Jun-12 03:55N 40°26' E 014°11'3 7.4
2018-Jun-12 03:29N 40°23' E 014°13'4 7.3
2018-Jun-12 02:59N 40°20' E 014°14'  
2018-Jun-03 17:02N 38°27' E 015°02'0 1.8
2018-Jun-03 16:58N 38°27' E 015°02'4 0.6
2018-Jun-03 10:19N 38°28' E 014°57'0 0.0
2018-Jun-03 09:55N 38°28' E 014°57'0 0.0
2018-Jun-03 09:19N 38°28' E 014°57'0 0.0
2018-Jun-03 08:43N 38°28' E 014°57'0 0.0
2018-Jun-03 08:19N 38°28' E 014°57'0 0.0
2018-Jun-03 07:37N 38°28' E 014°57'0 0.0
2018-Jun-03 07:25N 38°28' E 014°57'0 0.0
2018-Jun-03 06:49N 38°28' E 014°57'  

Dump ship's entire track history